Aérodrome :
LOGIN :

S'inscrire | Disclaimer

   EN    FR    IT 

 










Légende :    VFR   VFR Marginal   IFR   IFR Intensif   IFR Très Intensif
Visi : 
Plafond : 
>= 8 km
>= 3000ft
5 à 8 km
1000 à 3000 ft
1500m à 5 km
500 à 1000 ft
800 à 1500m
200 à 500 ft
< 800m
< 200 ft
Symboles :   Orages  Brouillard  Fortes neiges  Fortes précipitations  Vent > 20 kt
SIGMETs :   Divers  Orages  Givrage  Turbulence  Onde Orograph.  Cendres Volcan.






- Altitude de l'aérodrome : 646 ft
- Code IATA : VNO


EYVI - Vilnius int.

DERNIER METAR :
  • 280120Z VRB01KT CAVOK 08/05 Q1023 NOSIG

METARs EXPIRÉS :
  • 280050Z 36002KT CAVOK 09/06 Q1023 NOSIG
  • 280020Z VRB02KT CAVOK 09/06 Q1023 NOSIG
  • 272350Z 33005KT CAVOK 10/06 Q1024 NOSIG
  • 272320Z 32005KT CAVOK 11/06 Q1024 NOSIG
  • 272250Z 33005KT CAVOK 11/06 Q1024 NOSIG

TAF TAF EYVI
Valide du 28 à 00h jusqu'au 29 à 00h UTC


272309Z 2800/2824 VRB04KT 7000 NSC
PROB40
TEMPO 2800/2804 3000 BR SCT005
BECMG 2808/2809 BKN030
TEMPO 2809/2818 35014KT BKN020CB
BECMG 2818/2819 NSC



MET'MAP, la Météo Aéronautique d'un coup d'oeil ! - Copyright ORBIFLY Décembre 2007 - Disclaimer

ORBIFLY MET'MAP TEAM :

Programmation & Développement : Alexandra Zaïnal
Sur une idée originale de : Baudouin d'Aumeries
Assistance à la programmation : Marc-Olivier Méhu
Soutien technique & logistique : Manuel Goepfert

Contact : metmap@orbifly.com




SOURCES & CREDITS :

   NOAA